sensor_id;sensor_type;location;lat;lon;timestamp;temperature;humidity
74364;DHT22;62797;49.740;10.154;2023-08-12T00:00:10;18.50;63.20
74364;DHT22;62797;49.740;10.154;2023-08-12T00:02:43;18.50;63.20
74364;DHT22;62797;49.740;10.154;2023-08-12T00:05:10;18.50;63.00
74364;DHT22;62797;49.740;10.154;2023-08-12T00:07:36;18.50;63.40
74364;DHT22;62797;49.740;10.154;2023-08-12T00:10:06;18.50;63.10
74364;DHT22;62797;49.740;10.154;2023-08-12T00:12:32;18.40;63.00
74364;DHT22;62797;49.740;10.154;2023-08-12T00:14:58;18.40;63.40
74364;DHT22;62797;49.740;10.154;2023-08-12T00:17:24;18.40;63.50
74364;DHT22;62797;49.740;10.154;2023-08-12T00:19:49;18.30;63.80
74364;DHT22;62797;49.740;10.154;2023-08-12T00:22:15;18.30;63.90
74364;DHT22;62797;49.740;10.154;2023-08-12T00:24:41;18.30;64.50
74364;DHT22;62797;49.740;10.154;2023-08-12T00:27:09;18.30;64.70
74364;DHT22;62797;49.740;10.154;2023-08-12T00:29:35;18.20;65.10
74364;DHT22;62797;49.740;10.154;2023-08-12T00:32:01;18.20;64.70
74364;DHT22;62797;49.740;10.154;2023-08-12T00:34:27;18.20;64.90
74364;DHT22;62797;49.740;10.154;2023-08-12T00:36:53;18.20;65.00
74364;DHT22;62797;49.740;10.154;2023-08-12T00:39:18;18.10;65.40
74364;DHT22;62797;49.740;10.154;2023-08-12T00:41:44;18.00;65.80
74364;DHT22;62797;49.740;10.154;2023-08-12T00:44:10;18.00;66.00
74364;DHT22;62797;49.740;10.154;2023-08-12T00:46:40;18.10;66.20
74364;DHT22;62797;49.740;10.154;2023-08-12T00:49:06;18.00;66.00
74364;DHT22;62797;49.740;10.154;2023-08-12T00:51:32;18.00;66.20
74364;DHT22;62797;49.740;10.154;2023-08-12T00:53:59;18.00;65.40
74364;DHT22;62797;49.740;10.154;2023-08-12T00:56:26;18.00;65.20
74364;DHT22;62797;49.740;10.154;2023-08-12T00:58:53;18.00;65.30
74364;DHT22;62797;49.740;10.154;2023-08-12T01:01:21;17.90;66.10
74364;DHT22;62797;49.740;10.154;2023-08-12T01:03:47;17.90;66.50
74364;DHT22;62797;49.740;10.154;2023-08-12T01:06:12;17.90;66.40
74364;DHT22;62797;49.740;10.154;2023-08-12T01:08:38;17.90;66.10
74364;DHT22;62797;49.740;10.154;2023-08-12T01:16:38;17.90;65.80
74364;DHT22;62797;49.740;10.154;2023-08-12T01:19:11;17.80;66.00
74364;DHT22;62797;49.740;10.154;2023-08-12T01:21:44;17.80;66.50
74364;DHT22;62797;49.740;10.154;2023-08-12T01:24:09;17.80;66.20
74364;DHT22;62797;49.740;10.154;2023-08-12T01:26:35;17.80;65.60
74364;DHT22;62797;49.740;10.154;2023-08-12T01:29:01;17.80;65.50
74364;DHT22;62797;49.740;10.154;2023-08-12T01:31:38;17.80;65.80
74364;DHT22;62797;49.740;10.154;2023-08-12T01:34:09;17.80;66.20
74364;DHT22;62797;49.740;10.154;2023-08-12T01:36:38;17.70;66.70
74364;DHT22;62797;49.740;10.154;2023-08-12T01:39:06;17.70;66.80
74364;DHT22;62797;49.740;10.154;2023-08-12T01:41:34;17.70;66.10
74364;DHT22;62797;49.740;10.154;2023-08-12T01:44:01;17.80;65.60
74364;DHT22;62797;49.740;10.154;2023-08-12T01:46:29;17.80;66.70
74364;DHT22;62797;49.740;10.154;2023-08-12T01:48:56;17.70;67.60
74364;DHT22;62797;49.740;10.154;2023-08-12T01:51:21;17.60;67.70
74364;DHT22;62797;49.740;10.154;2023-08-12T01:53:47;17.70;66.80
74364;DHT22;62797;49.740;10.154;2023-08-12T01:56:13;17.70;67.20
74364;DHT22;62797;49.740;10.154;2023-08-12T01:58:39;17.60;67.30
74364;DHT22;62797;49.740;10.154;2023-08-12T02:01:04;17.60;67.70
74364;DHT22;62797;49.740;10.154;2023-08-12T02:03:30;17.60;67.10
74364;DHT22;62797;49.740;10.154;2023-08-12T02:05:55;17.70;66.80
74364;DHT22;62797;49.740;10.154;2023-08-12T02:08:21;17.60;66.70
74364;DHT22;62797;49.740;10.154;2023-08-12T02:10:47;17.60;66.90
74364;DHT22;62797;49.740;10.154;2023-08-12T02:13:14;17.60;67.40
74364;DHT22;62797;49.740;10.154;2023-08-12T02:15:39;17.60;67.40
74364;DHT22;62797;49.740;10.154;2023-08-12T02:18:10;17.60;67.00
74364;DHT22;62797;49.740;10.154;2023-08-12T02:20:38;17.60;66.60
74364;DHT22;62797;49.740;10.154;2023-08-12T02:23:05;17.60;66.20
74364;DHT22;62797;49.740;10.154;2023-08-12T02:25:31;17.60;66.30
74364;DHT22;62797;49.740;10.154;2023-08-12T02:27:58;17.60;66.60
74364;DHT22;62797;49.740;10.154;2023-08-12T02:30:24;17.50;66.80
74364;DHT22;62797;49.740;10.154;2023-08-12T02:32:50;17.50;66.20
74364;DHT22;62797;49.740;10.154;2023-08-12T02:35:18;17.50;66.60
74364;DHT22;62797;49.740;10.154;2023-08-12T02:37:43;17.50;66.60
74364;DHT22;62797;49.740;10.154;2023-08-12T02:40:09;17.50;67.10
74364;DHT22;62797;49.740;10.154;2023-08-12T02:42:36;17.50;67.30
74364;DHT22;62797;49.740;10.154;2023-08-12T02:45:02;17.50;67.60
74364;DHT22;62797;49.740;10.154;2023-08-12T02:47:28;17.50;67.00
74364;DHT22;62797;49.740;10.154;2023-08-12T02:49:54;17.50;67.30
74364;DHT22;62797;49.740;10.154;2023-08-12T02:52:19;17.50;67.80
74364;DHT22;62797;49.740;10.154;2023-08-12T02:54:45;17.60;67.40
74364;DHT22;62797;49.740;10.154;2023-08-12T02:57:11;17.50;67.00
74364;DHT22;62797;49.740;10.154;2023-08-12T02:59:36;17.60;67.10
74364;DHT22;62797;49.740;10.154;2023-08-12T03:02:02;17.50;66.70
74364;DHT22;62797;49.740;10.154;2023-08-12T03:04:29;17.50;66.70
74364;DHT22;62797;49.740;10.154;2023-08-12T03:06:55;17.50;67.10
74364;DHT22;62797;49.740;10.154;2023-08-12T03:09:20;17.50;67.50
74364;DHT22;62797;49.740;10.154;2023-08-12T03:11:46;17.60;67.30
74364;DHT22;62797;49.740;10.154;2023-08-12T03:14:12;17.60;67.70
74364;DHT22;62797;49.740;10.154;2023-08-12T03:16:38;17.60;67.70
74364;DHT22;62797;49.740;10.154;2023-08-12T03:19:04;17.60;67.20
74364;DHT22;62797;49.740;10.154;2023-08-12T03:21:29;17.60;67.50
74364;DHT22;62797;49.740;10.154;2023-08-12T03:23:56;17.50;67.60
74364;DHT22;62797;49.740;10.154;2023-08-12T03:26:21;17.60;67.10
74364;DHT22;62797;49.740;10.154;2023-08-12T03:28:47;17.60;67.30
74364;DHT22;62797;49.740;10.154;2023-08-12T03:31:16;17.60;67.70
74364;DHT22;62797;49.740;10.154;2023-08-12T03:33:42;17.50;68.40
74364;DHT22;62797;49.740;10.154;2023-08-12T03:36:09;17.60;68.40
74364;DHT22;62797;49.740;10.154;2023-08-12T03:38:34;17.60;68.90
74364;DHT22;62797;49.740;10.154;2023-08-12T03:41:05;17.60;68.80
74364;DHT22;62797;49.740;10.154;2023-08-12T03:43:33;17.70;67.80
74364;DHT22;62797;49.740;10.154;2023-08-12T03:45:59;17.70;68.50
74364;DHT22;62797;49.740;10.154;2023-08-12T03:48:26;17.70;68.70
74364;DHT22;62797;49.740;10.154;2023-08-12T03:50:51;17.80;68.40
74364;DHT22;62797;49.740;10.154;2023-08-12T03:53:17;17.80;68.50
74364;DHT22;62797;49.740;10.154;2023-08-12T03:55:43;17.90;68.00
74364;DHT22;62797;49.740;10.154;2023-08-12T03:58:10;17.90;67.70
74364;DHT22;62797;49.740;10.154;2023-08-12T04:00:41;17.90;67.70
74364;DHT22;62797;49.740;10.154;2023-08-12T04:03:09;17.90;67.40
74364;DHT22;62797;49.740;10.154;2023-08-12T04:05:34;18.00;67.00
74364;DHT22;62797;49.740;10.154;2023-08-12T04:08:01;18.10;66.90
74364;DHT22;62797;49.740;10.154;2023-08-12T04:10:28;18.10;67.00
74364;DHT22;62797;49.740;10.154;2023-08-12T04:12:55;18.20;66.60
74364;DHT22;62797;49.740;10.154;2023-08-12T04:15:20;18.20;66.20
74364;DHT22;62797;49.740;10.154;2023-08-12T04:17:46;18.30;65.90
74364;DHT22;62797;49.740;10.154;2023-08-12T04:20:12;18.40;65.10
74364;DHT22;62797;49.740;10.154;2023-08-12T04:22:37;18.40;65.80
74364;DHT22;62797;49.740;10.154;2023-08-12T04:25:03;18.40;65.90
74364;DHT22;62797;49.740;10.154;2023-08-12T04:27:29;18.50;66.20
74364;DHT22;62797;49.740;10.154;2023-08-12T04:29:55;18.50;66.00
74364;DHT22;62797;49.740;10.154;2023-08-12T04:32:21;18.60;65.90
74364;DHT22;62797;49.740;10.154;2023-08-12T04:34:48;18.60;65.80
74364;DHT22;62797;49.740;10.154;2023-08-12T04:37:15;18.60;65.50
74364;DHT22;62797;49.740;10.154;2023-08-12T04:39:42;18.70;66.10
74364;DHT22;62797;49.740;10.154;2023-08-12T04:42:10;18.70;66.50
74364;DHT22;62797;49.740;10.154;2023-08-12T04:44:36;18.80;66.10
74364;DHT22;62797;49.740;10.154;2023-08-12T04:47:02;18.80;65.50
74364;DHT22;62797;49.740;10.154;2023-08-12T04:49:29;18.80;65.60
74364;DHT22;62797;49.740;10.154;2023-08-12T04:51:56;18.90;65.80
74364;DHT22;62797;49.740;10.154;2023-08-12T04:54:22;18.90;65.90
74364;DHT22;62797;49.740;10.154;2023-08-12T04:56:48;18.90;65.50
74364;DHT22;62797;49.740;10.154;2023-08-12T04:59:13;19.00;65.60
74364;DHT22;62797;49.740;10.154;2023-08-12T05:01:39;19.10;65.30
74364;DHT22;62797;49.740;10.154;2023-08-12T05:04:05;19.20;65.30
74364;DHT22;62797;49.740;10.154;2023-08-12T05:06:32;19.20;65.50
74364;DHT22;62797;49.740;10.154;2023-08-12T05:08:57;19.30;66.20
74364;DHT22;62797;49.740;10.154;2023-08-12T05:11:26;19.40;65.90
74364;DHT22;62797;49.740;10.154;2023-08-12T05:13:52;19.40;66.10
74364;DHT22;62797;49.740;10.154;2023-08-12T05:16:18;19.40;66.10
74364;DHT22;62797;49.740;10.154;2023-08-12T05:18:43;19.50;65.90
74364;DHT22;62797;49.740;10.154;2023-08-12T05:21:10;19.50;64.30
74364;DHT22;62797;49.740;10.154;2023-08-12T05:23:36;19.60;64.20
74364;DHT22;62797;49.740;10.154;2023-08-12T05:26:03;19.60;64.60
74364;DHT22;62797;49.740;10.154;2023-08-12T05:28:28;19.70;64.30
74364;DHT22;62797;49.740;10.154;2023-08-12T05:30:54;19.70;64.60
74364;DHT22;62797;49.740;10.154;2023-08-12T05:33:21;19.70;64.70
74364;DHT22;62797;49.740;10.154;2023-08-12T05:35:47;19.80;64.70
74364;DHT22;62797;49.740;10.154;2023-08-12T05:38:13;19.80;63.80
74364;DHT22;62797;49.740;10.154;2023-08-12T05:40:39;19.90;63.90
74364;DHT22;62797;49.740;10.154;2023-08-12T05:43:05;20.00;63.80
74364;DHT22;62797;49.740;10.154;2023-08-12T05:45:30;20.00;64.00
74364;DHT22;62797;49.740;10.154;2023-08-12T05:47:56;20.00;64.70
74364;DHT22;62797;49.740;10.154;2023-08-12T05:50:22;20.00;64.80
74364;DHT22;62797;49.740;10.154;2023-08-12T05:52:47;20.10;64.40
74364;DHT22;62797;49.740;10.154;2023-08-12T05:55:13;20.20;64.30
74364;DHT22;62797;49.740;10.154;2023-08-12T05:57:39;20.20;64.00
74364;DHT22;62797;49.740;10.154;2023-08-12T06:00:05;20.30;63.00
74364;DHT22;62797;49.740;10.154;2023-08-12T06:02:37;20.30;63.70
74364;DHT22;62797;49.740;10.154;2023-08-12T06:05:03;20.40;63.30
74364;DHT22;62797;49.740;10.154;2023-08-12T06:07:28;20.50;62.30
74364;DHT22;62797;49.740;10.154;2023-08-12T06:09:54;20.50;62.60
74364;DHT22;62797;49.740;10.154;2023-08-12T06:12:20;20.60;62.20
74364;DHT22;62797;49.740;10.154;2023-08-12T06:14:45;20.60;61.40
74364;DHT22;62797;49.740;10.154;2023-08-12T06:17:11;20.70;61.80
74364;DHT22;62797;49.740;10.154;2023-08-12T06:19:37;20.80;60.30
74364;DHT22;62797;49.740;10.154;2023-08-12T06:22:02;20.80;58.70
74364;DHT22;62797;49.740;10.154;2023-08-12T06:24:28;20.90;60.30
74364;DHT22;62797;49.740;10.154;2023-08-12T06:26:54;21.00;61.10
74364;DHT22;62797;49.740;10.154;2023-08-12T06:29:22;21.10;58.90
74364;DHT22;62797;49.740;10.154;2023-08-12T06:31:48;21.20;58.60
74364;DHT22;62797;49.740;10.154;2023-08-12T06:34:13;21.30;55.40
74364;DHT22;62797;49.740;10.154;2023-08-12T06:36:39;21.40;56.60
74364;DHT22;62797;49.740;10.154;2023-08-12T06:39:05;21.50;54.60
74364;DHT22;62797;49.740;10.154;2023-08-12T06:41:31;21.50;54.60
74364;DHT22;62797;49.740;10.154;2023-08-12T06:43:56;21.60;52.70
74364;DHT22;62797;49.740;10.154;2023-08-12T06:46:22;21.60;52.50
74364;DHT22;62797;49.740;10.154;2023-08-12T06:48:48;21.70;51.00
74364;DHT22;62797;49.740;10.154;2023-08-12T06:51:13;21.70;52.10
74364;DHT22;62797;49.740;10.154;2023-08-12T06:53:39;21.80;51.10
74364;DHT22;62797;49.740;10.154;2023-08-12T06:56:05;21.80;52.80
74364;DHT22;62797;49.740;10.154;2023-08-12T06:58:31;21.90;51.60
74364;DHT22;62797;49.740;10.154;2023-08-12T07:00:57;21.90;51.60
74364;DHT22;62797;49.740;10.154;2023-08-12T07:03:24;21.90;51.30
74364;DHT22;62797;49.740;10.154;2023-08-12T07:05:51;22.00;50.80
74364;DHT22;62797;49.740;10.154;2023-08-12T07:08:17;22.00;50.20
74364;DHT22;62797;49.740;10.154;2023-08-12T07:10:43;22.20;50.70
74364;DHT22;62797;49.740;10.154;2023-08-12T07:13:08;22.30;51.10
74364;DHT22;62797;49.740;10.154;2023-08-12T07:15:34;22.50;50.70
74364;DHT22;62797;49.740;10.154;2023-08-12T07:18:00;22.60;50.90
74364;DHT22;62797;49.740;10.154;2023-08-12T07:20:25;22.80;49.20
74364;DHT22;62797;49.740;10.154;2023-08-12T07:22:51;22.90;48.50
74364;DHT22;62797;49.740;10.154;2023-08-12T07:25:17;23.00;48.70
74364;DHT22;62797;49.740;10.154;2023-08-12T07:27:43;23.10;48.30
74364;DHT22;62797;49.740;10.154;2023-08-12T07:30:09;23.10;45.60
74364;DHT22;62797;49.740;10.154;2023-08-12T07:32:38;23.10;45.30
74364;DHT22;62797;49.740;10.154;2023-08-12T07:35:05;23.20;45.30
74364;DHT22;62797;49.740;10.154;2023-08-12T07:37:33;23.30;44.30
74364;DHT22;62797;49.740;10.154;2023-08-12T07:39:59;23.20;43.50
74364;DHT22;62797;49.740;10.154;2023-08-12T07:42:25;23.20;43.20
74364;DHT22;62797;49.740;10.154;2023-08-12T07:44:52;23.00;43.70
74364;DHT22;62797;49.740;10.154;2023-08-12T07:47:18;23.10;44.10
74364;DHT22;62797;49.740;10.154;2023-08-12T07:49:47;23.00;44.00
74364;DHT22;62797;49.740;10.154;2023-08-12T07:52:12;23.10;44.90
74364;DHT22;62797;49.740;10.154;2023-08-12T07:54:38;23.10;43.10
74364;DHT22;62797;49.740;10.154;2023-08-12T07:57:04;23.20;43.60
74364;DHT22;62797;49.740;10.154;2023-08-12T07:59:30;23.20;43.30
74364;DHT22;62797;49.740;10.154;2023-08-12T08:01:56;23.20;43.60
74364;DHT22;62797;49.740;10.154;2023-08-12T08:04:21;23.20;43.60
74364;DHT22;62797;49.740;10.154;2023-08-12T08:06:47;23.30;43.30
74364;DHT22;62797;49.740;10.154;2023-08-12T08:09:13;23.30;43.40
74364;DHT22;62797;49.740;10.154;2023-08-12T08:11:38;23.40;43.60
74364;DHT22;62797;49.740;10.154;2023-08-12T08:14:04;23.60;43.90
74364;DHT22;62797;49.740;10.154;2023-08-12T08:16:30;23.70;43.70
74364;DHT22;62797;49.740;10.154;2023-08-12T08:18:55;23.80;42.10
74364;DHT22;62797;49.740;10.154;2023-08-12T08:21:21;23.90;42.10
74364;DHT22;62797;49.740;10.154;2023-08-12T08:23:47;23.90;42.90
74364;DHT22;62797;49.740;10.154;2023-08-12T08:26:12;24.00;42.90
74364;DHT22;62797;49.740;10.154;2023-08-12T08:28:41;24.10;43.60
74364;DHT22;62797;49.740;10.154;2023-08-12T08:31:06;24.00;42.80
74364;DHT22;62797;49.740;10.154;2023-08-12T08:33:32;23.90;42.40
74364;DHT22;62797;49.740;10.154;2023-08-12T08:35:58;23.90;42.10
74364;DHT22;62797;49.740;10.154;2023-08-12T08:38:23;23.90;41.80
74364;DHT22;62797;49.740;10.154;2023-08-12T08:40:50;24.00;42.10
74364;DHT22;62797;49.740;10.154;2023-08-12T08:43:20;24.00;42.60
74364;DHT22;62797;49.740;10.154;2023-08-12T08:45:52;24.10;41.90
74364;DHT22;62797;49.740;10.154;2023-08-12T08:48:20;24.30;41.20
74364;DHT22;62797;49.740;10.154;2023-08-12T08:50:47;24.40;38.90
74364;DHT22;62797;49.740;10.154;2023-08-12T08:53:16;24.50;40.50
74364;DHT22;62797;49.740;10.154;2023-08-12T08:55:44;24.60;40.10
74364;DHT22;62797;49.740;10.154;2023-08-12T08:58:10;24.80;38.40
74364;DHT22;62797;49.740;10.154;2023-08-12T09:00:37;25.10;38.60
74364;DHT22;62797;49.740;10.154;2023-08-12T09:03:05;25.10;37.60
74364;DHT22;62797;49.740;10.154;2023-08-12T09:05:32;25.20;37.40
74364;DHT22;62797;49.740;10.154;2023-08-12T09:08:00;25.20;37.60
74364;DHT22;62797;49.740;10.154;2023-08-12T09:10:27;25.20;37.60
74364;DHT22;62797;49.740;10.154;2023-08-12T09:12:55;25.30;35.30
74364;DHT22;62797;49.740;10.154;2023-08-12T09:15:21;25.40;35.50
74364;DHT22;62797;49.740;10.154;2023-08-12T09:17:46;25.40;36.50
74364;DHT22;62797;49.740;10.154;2023-08-12T09:20:12;25.60;37.00
74364;DHT22;62797;49.740;10.154;2023-08-12T09:22:39;25.70;36.20
74364;DHT22;62797;49.740;10.154;2023-08-12T09:25:06;25.80;36.00
74364;DHT22;62797;49.740;10.154;2023-08-12T09:27:31;26.00;35.00
74364;DHT22;62797;49.740;10.154;2023-08-12T09:30:03;26.10;34.80
74364;DHT22;62797;49.740;10.154;2023-08-12T09:32:30;26.10;36.30
74364;DHT22;62797;49.740;10.154;2023-08-12T09:34:56;26.40;34.20
74364;DHT22;62797;49.740;10.154;2023-08-12T09:37:23;26.50;31.90
74364;DHT22;62797;49.740;10.154;2023-08-12T09:39:50;26.50;33.50
74364;DHT22;62797;49.740;10.154;2023-08-12T09:42:17;26.40;33.20
74364;DHT22;62797;49.740;10.154;2023-08-12T09:44:43;26.50;34.50
74364;DHT22;62797;49.740;10.154;2023-08-12T09:47:09;26.50;33.30
74364;DHT22;62797;49.740;10.154;2023-08-12T09:49:35;26.60;34.80
74364;DHT22;62797;49.740;10.154;2023-08-12T09:52:05;26.60;34.30
74364;DHT22;62797;49.740;10.154;2023-08-12T09:54:32;26.80;33.70
74364;DHT22;62797;49.740;10.154;2023-08-12T09:57:00;26.80;32.20
74364;DHT22;62797;49.740;10.154;2023-08-12T09:59:34;27.00;33.20
74364;DHT22;62797;49.740;10.154;2023-08-12T10:02:02;27.40;32.00
74364;DHT22;62797;49.740;10.154;2023-08-12T10:04:39;27.50;30.40
74364;DHT22;62797;49.740;10.154;2023-08-12T10:07:09;27.70;29.60
74364;DHT22;62797;49.740;10.154;2023-08-12T10:09:36;27.80;30.10
74364;DHT22;62797;49.740;10.154;2023-08-12T10:12:03;27.70;31.10
74364;DHT22;62797;49.740;10.154;2023-08-12T10:14:29;27.60;30.50
74364;DHT22;62797;49.740;10.154;2023-08-12T10:16:55;27.60;30.70
74364;DHT22;62797;49.740;10.154;2023-08-12T10:19:22;27.60;31.60
74364;DHT22;62797;49.740;10.154;2023-08-12T10:21:55;27.60;31.90
74364;DHT22;62797;49.740;10.154;2023-08-12T10:24:26;27.70;32.20
74364;DHT22;62797;49.740;10.154;2023-08-12T10:26:52;27.80;31.90
74364;DHT22;62797;49.740;10.154;2023-08-12T10:29:19;27.80;31.50
74364;DHT22;62797;49.740;10.154;2023-08-12T10:31:46;27.70;30.80
74364;DHT22;62797;49.740;10.154;2023-08-12T10:34:23;27.70;32.70
74364;DHT22;62797;49.740;10.154;2023-08-12T10:36:57;27.70;31.50
74364;DHT22;62797;49.740;10.154;2023-08-12T10:39:26;27.80;31.00
74364;DHT22;62797;49.740;10.154;2023-08-12T10:41:54;27.90;30.30
74364;DHT22;62797;49.740;10.154;2023-08-12T10:44:21;28.10;32.70
74364;DHT22;62797;49.740;10.154;2023-08-12T10:46:52;28.50;30.70
74364;DHT22;62797;49.740;10.154;2023-08-12T10:49:22;28.60;29.10
74364;DHT22;62797;49.740;10.154;2023-08-12T10:51:57;28.70;28.80
74364;DHT22;62797;49.740;10.154;2023-08-12T10:54:27;28.90;27.90
74364;DHT22;62797;49.740;10.154;2023-08-12T11:02:32;29.30;27.10
74364;DHT22;62797;49.740;10.154;2023-08-12T11:05:10;29.50;26.80
74364;DHT22;62797;49.740;10.154;2023-08-12T11:07:59;29.90;26.90
74364;DHT22;62797;49.740;10.154;2023-08-12T11:10:27;30.30;27.00
74364;DHT22;62797;49.740;10.154;2023-08-12T11:15:41;30.10;24.80
74364;DHT22;62797;49.740;10.154;2023-08-12T11:18:09;30.10;25.10
74364;DHT22;62797;49.740;10.154;2023-08-12T11:20:36;30.10;24.50
74364;DHT22;62797;49.740;10.154;2023-08-12T11:23:03;30.00;24.50
74364;DHT22;62797;49.740;10.154;2023-08-12T11:25:31;29.90;26.20
74364;DHT22;62797;49.740;10.154;2023-08-12T11:27:58;29.90;24.60
74364;DHT22;62797;49.740;10.154;2023-08-12T11:30:24;29.90;26.30
74364;DHT22;62797;49.740;10.154;2023-08-12T11:32:51;30.00;25.20
74364;DHT22;62797;49.740;10.154;2023-08-12T11:35:18;30.00;26.50
74364;DHT22;62797;49.740;10.154;2023-08-12T11:37:50;30.20;26.30
74364;DHT22;62797;49.740;10.154;2023-08-12T11:40:19;30.20;26.10
74364;DHT22;62797;49.740;10.154;2023-08-12T11:42:47;30.20;26.00
74364;DHT22;62797;49.740;10.154;2023-08-12T11:45:15;30.10;25.30
74364;DHT22;62797;49.740;10.154;2023-08-12T11:47:44;30.00;26.10
74364;DHT22;62797;49.740;10.154;2023-08-12T11:50:12;30.20;25.70
74364;DHT22;62797;49.740;10.154;2023-08-12T11:52:39;30.60;24.80
74364;DHT22;62797;49.740;10.154;2023-08-12T11:55:06;30.90;25.60
74364;DHT22;62797;49.740;10.154;2023-08-12T11:57:33;31.20;22.50
74364;DHT22;62797;49.740;10.154;2023-08-12T12:00:04;31.20;22.50
74364;DHT22;62797;49.740;10.154;2023-08-12T12:02:52;31.20;22.00
74364;DHT22;62797;49.740;10.154;2023-08-12T12:05:21;31.10;23.10
74364;DHT22;62797;49.740;10.154;2023-08-12T12:07:48;31.20;21.10
74364;DHT22;62797;49.740;10.154;2023-08-12T12:10:29;31.10;22.20
74364;DHT22;62797;49.740;10.154;2023-08-12T12:12:55;31.10;21.10
74364;DHT22;62797;49.740;10.154;2023-08-12T12:15:21;31.00;21.50
74364;DHT22;62797;49.740;10.154;2023-08-12T12:17:47;31.10;20.70
74364;DHT22;62797;49.740;10.154;2023-08-12T12:20:16;30.90;20.70
74364;DHT22;62797;49.740;10.154;2023-08-12T12:22:43;30.70;22.00
74364;DHT22;62797;49.740;10.154;2023-08-12T12:25:13;30.80;20.30
74364;DHT22;62797;49.740;10.154;2023-08-12T12:27:40;31.00;19.60
74364;DHT22;62797;49.740;10.154;2023-08-12T12:30:10;31.20;19.90
74364;DHT22;62797;49.740;10.154;2023-08-12T12:32:36;31.30;19.40
74364;DHT22;62797;49.740;10.154;2023-08-12T12:35:02;31.30;19.90
74364;DHT22;62797;49.740;10.154;2023-08-12T12:37:29;31.10;20.40
74364;DHT22;62797;49.740;10.154;2023-08-12T12:39:55;30.90;20.70
74364;DHT22;62797;49.740;10.154;2023-08-12T12:42:21;30.80;20.40
74364;DHT22;62797;49.740;10.154;2023-08-12T12:44:46;30.50;21.10
74364;DHT22;62797;49.740;10.154;2023-08-12T12:47:12;30.20;20.90
74364;DHT22;62797;49.740;10.154;2023-08-12T12:49:39;30.00;21.40
74364;DHT22;62797;49.740;10.154;2023-08-12T12:52:06;29.80;21.50
74364;DHT22;62797;49.740;10.154;2023-08-12T12:54:32;29.40;22.00
74364;DHT22;62797;49.740;10.154;2023-08-12T12:56:58;27.30;25.60
74364;DHT22;62797;49.740;10.154;2023-08-12T12:59:23;26.20;29.60
74364;DHT22;62797;49.740;10.154;2023-08-12T13:01:49;25.30;35.70
74364;DHT22;62797;49.740;10.154;2023-08-12T13:04:15;24.40;40.90
74364;DHT22;62797;49.740;10.154;2023-08-12T13:06:40;23.40;54.00
74364;DHT22;62797;49.740;10.154;2023-08-12T13:09:06;22.20;68.00
74364;DHT22;62797;49.740;10.154;2023-08-12T13:11:33;21.50;71.50
74364;DHT22;62797;49.740;10.154;2023-08-12T13:14:01;21.10;74.90
74364;DHT22;62797;49.740;10.154;2023-08-12T13:16:26;20.90;77.40
74364;DHT22;62797;49.740;10.154;2023-08-12T13:18:52;20.70;79.80
74364;DHT22;62797;49.740;10.154;2023-08-12T13:21:18;20.60;81.70
74364;DHT22;62797;49.740;10.154;2023-08-12T13:23:44;20.40;84.20
74364;DHT22;62797;49.740;10.154;2023-08-12T13:26:09;20.20;86.50
74364;DHT22;62797;49.740;10.154;2023-08-12T13:28:35;20.30;87.90
74364;DHT22;62797;49.740;10.154;2023-08-12T13:31:01;20.30;88.30
74364;DHT22;62797;49.740;10.154;2023-08-12T13:33:26;20.50;87.30
74364;DHT22;62797;49.740;10.154;2023-08-12T13:35:52;20.50;87.40
74364;DHT22;62797;49.740;10.154;2023-08-12T13:38:18;20.50;86.60
74364;DHT22;62797;49.740;10.154;2023-08-12T13:40:44;20.50;86.10
74364;DHT22;62797;49.740;10.154;2023-08-12T13:43:09;20.60;85.30
74364;DHT22;62797;49.740;10.154;2023-08-12T13:45:35;20.50;86.70
74364;DHT22;62797;49.740;10.154;2023-08-12T13:48:01;20.60;82.70
74364;DHT22;62797;49.740;10.154;2023-08-12T13:50:27;20.60;84.00
74364;DHT22;62797;49.740;10.154;2023-08-12T13:52:53;20.60;85.80
74364;DHT22;62797;49.740;10.154;2023-08-12T13:55:18;20.60;88.20
74364;DHT22;62797;49.740;10.154;2023-08-12T13:57:44;20.70;87.60
74364;DHT22;62797;49.740;10.154;2023-08-12T14:00:10;20.70;87.40
74364;DHT22;62797;49.740;10.154;2023-08-12T14:02:39;20.90;91.00
74364;DHT22;62797;49.740;10.154;2023-08-12T14:05:06;21.40;93.60
74364;DHT22;62797;49.740;10.154;2023-08-12T14:07:32;21.70;94.10
74364;DHT22;62797;49.740;10.154;2023-08-12T14:09:59;22.00;94.30
74364;DHT22;62797;49.740;10.154;2023-08-12T14:12:25;22.20;94.20
74364;DHT22;62797;49.740;10.154;2023-08-12T14:14:50;22.40;92.90
74364;DHT22;62797;49.740;10.154;2023-08-12T14:17:16;22.50;92.10
74364;DHT22;62797;49.740;10.154;2023-08-12T14:19:47;22.70;92.40
74364;DHT22;62797;49.740;10.154;2023-08-12T14:22:13;22.90;93.50
74364;DHT22;62797;49.740;10.154;2023-08-12T14:24:39;23.00;91.30
74364;DHT22;62797;49.740;10.154;2023-08-12T14:27:04;22.90;89.90
74364;DHT22;62797;49.740;10.154;2023-08-12T14:29:30;22.80;88.60
74364;DHT22;62797;49.740;10.154;2023-08-12T14:31:56;22.80;90.10
74364;DHT22;62797;49.740;10.154;2023-08-12T14:34:22;22.60;89.40
74364;DHT22;62797;49.740;10.154;2023-08-12T14:36:48;22.40;88.70
74364;DHT22;62797;49.740;10.154;2023-08-12T14:39:14;22.40;89.80
74364;DHT22;62797;49.740;10.154;2023-08-12T14:41:39;22.50;91.50
74364;DHT22;62797;49.740;10.154;2023-08-12T14:44:05;22.80;92.30
74364;DHT22;62797;49.740;10.154;2023-08-12T14:46:31;22.90;92.00
74364;DHT22;62797;49.740;10.154;2023-08-12T14:48:56;22.90;88.60
74364;DHT22;62797;49.740;10.154;2023-08-12T14:51:22;22.80;87.20
74364;DHT22;62797;49.740;10.154;2023-08-12T14:53:48;22.70;86.70
74364;DHT22;62797;49.740;10.154;2023-08-12T14:56:15;22.60;86.30
74364;DHT22;62797;49.740;10.154;2023-08-12T14:58:40;22.50;86.70
74364;DHT22;62797;49.740;10.154;2023-08-12T15:01:06;22.40;88.80
74364;DHT22;62797;49.740;10.154;2023-08-12T15:03:32;22.40;89.60
74364;DHT22;62797;49.740;10.154;2023-08-12T15:06:01;22.40;90.10
74364;DHT22;62797;49.740;10.154;2023-08-12T15:08:29;22.50;90.70
74364;DHT22;62797;49.740;10.154;2023-08-12T15:11:01;22.50;90.20
74364;DHT22;62797;49.740;10.154;2023-08-12T15:13:26;22.70;90.80
74364;DHT22;62797;49.740;10.154;2023-08-12T15:15:52;22.60;88.00
74364;DHT22;62797;49.740;10.154;2023-08-12T15:18:18;22.50;87.60
74364;DHT22;62797;49.740;10.154;2023-08-12T15:20:44;22.60;88.60
74364;DHT22;62797;49.740;10.154;2023-08-12T15:23:10;22.50;88.00
74364;DHT22;62797;49.740;10.154;2023-08-12T15:25:36;22.50;89.30